sensor_id;sensor_type;location;lat;lon;timestamp;P1;durP1;ratioP1;P2;durP2;ratioP2
22687;SDS011;11511;51.514;7.080;2022-12-10T00:01:57;99.22;;;42.38;;
22687;SDS011;11511;51.514;7.080;2022-12-10T00:04:29;95.78;;;40.90;;
22687;SDS011;11511;51.514;7.080;2022-12-10T00:07:01;87.88;;;39.35;;
22687;SDS011;11511;51.514;7.080;2022-12-10T00:09:35;93.35;;;39.47;;
22687;SDS011;11511;51.514;7.080;2022-12-10T00:12:09;85.03;;;39.33;;
22687;SDS011;11511;51.514;7.080;2022-12-10T00:14:42;93.13;;;40.28;;
22687;SDS011;11511;51.514;7.080;2022-12-10T00:17:11;88.93;;;38.90;;
22687;SDS011;11511;51.514;7.080;2022-12-10T00:19:46;89.25;;;39.95;;
22687;SDS011;11511;51.514;7.080;2022-12-10T00:22:24;91.78;;;39.60;;
22687;SDS011;11511;51.514;7.080;2022-12-10T00:27:33;102.13;;;42.58;;
22687;SDS011;11511;51.514;7.080;2022-12-10T00:30:08;98.10;;;41.10;;
22687;SDS011;11511;51.514;7.080;2022-12-10T00:32:37;100.03;;;42.08;;
22687;SDS011;11511;51.514;7.080;2022-12-10T00:35:06;96.10;;;42.05;;
22687;SDS011;11511;51.514;7.080;2022-12-10T00:37:35;100.93;;;42.38;;
22687;SDS011;11511;51.514;7.080;2022-12-10T00:40:13;101.35;;;41.85;;
22687;SDS011;11511;51.514;7.080;2022-12-10T00:42:42;102.57;;;41.45;;
22687;SDS011;11511;51.514;7.080;2022-12-10T00:45:15;103.97;;;42.55;;
22687;SDS011;11511;51.514;7.080;2022-12-10T00:47:53;93.65;;;40.15;;
22687;SDS011;11511;51.514;7.080;2022-12-10T00:50:22;98.68;;;40.38;;
22687;SDS011;11511;51.514;7.080;2022-12-10T00:52:50;100.22;;;42.15;;
22687;SDS011;11511;51.514;7.080;2022-12-10T00:55:21;90.32;;;39.47;;
22687;SDS011;11511;51.514;7.080;2022-12-10T00:57:49;104.65;;;41.78;;
22687;SDS011;11511;51.514;7.080;2022-12-10T01:00:18;97.68;;;42.67;;
22687;SDS011;11511;51.514;7.080;2022-12-10T01:02:47;108.30;;;43.75;;
22687;SDS011;11511;51.514;7.080;2022-12-10T01:05:27;104.70;;;42.22;;
22687;SDS011;11511;51.514;7.080;2022-12-10T01:07:56;98.50;;;40.95;;
22687;SDS011;11511;51.514;7.080;2022-12-10T01:10:25;101.40;;;42.55;;
22687;SDS011;11511;51.514;7.080;2022-12-10T01:13:03;100.45;;;42.08;;
22687;SDS011;11511;51.514;7.080;2022-12-10T01:15:37;107.35;;;42.92;;
22687;SDS011;11511;51.514;7.080;2022-12-10T01:18:08;98.57;;;41.53;;
22687;SDS011;11511;51.514;7.080;2022-12-10T01:23:19;105.28;;;41.72;;
22687;SDS011;11511;51.514;7.080;2022-12-10T01:25:48;101.88;;;42.20;;
22687;SDS011;11511;51.514;7.080;2022-12-10T01:28:21;102.93;;;42.58;;
22687;SDS011;11511;51.514;7.080;2022-12-10T01:30:50;105.43;;;42.67;;
22687;SDS011;11511;51.514;7.080;2022-12-10T01:33:20;102.03;;;42.28;;
22687;SDS011;11511;51.514;7.080;2022-12-10T01:35:49;108.32;;;41.80;;
22687;SDS011;11511;51.514;7.080;2022-12-10T01:38:20;106.90;;;42.78;;
22687;SDS011;11511;51.514;7.080;2022-12-10T01:40:49;116.75;;;43.85;;
22687;SDS011;11511;51.514;7.080;2022-12-10T01:43:17;110.50;;;41.40;;
22687;SDS011;11511;51.514;7.080;2022-12-10T01:45:46;116.40;;;45.20;;
22687;SDS011;11511;51.514;7.080;2022-12-10T01:48:14;109.45;;;43.38;;
22687;SDS011;11511;51.514;7.080;2022-12-10T01:50:44;113.90;;;43.70;;
22687;SDS011;11511;51.514;7.080;2022-12-10T01:53:13;108.20;;;42.97;;
22687;SDS011;11511;51.514;7.080;2022-12-10T01:55:47;114.47;;;44.13;;
22687;SDS011;11511;51.514;7.080;2022-12-10T01:58:23;121.50;;;44.83;;
22687;SDS011;11511;51.514;7.080;2022-12-10T02:07:20;117.22;;;44.58;;
22687;SDS011;11511;51.514;7.080;2022-12-10T02:09:57;110.45;;;44.55;;
22687;SDS011;11511;51.514;7.080;2022-12-10T02:13:06;110.35;;;43.60;;
22687;SDS011;11511;51.514;7.080;2022-12-10T02:16:08;109.32;;;42.95;;
22687;SDS011;11511;51.514;7.080;2022-12-10T02:22:04;114.15;;;44.13;;
22687;SDS011;11511;51.514;7.080;2022-12-10T02:24:47;110.63;;;44.50;;
22687;SDS011;11511;51.514;7.080;2022-12-10T02:30:24;116.28;;;45.55;;
22687;SDS011;11511;51.514;7.080;2022-12-10T02:33:02;120.60;;;43.38;;
22687;SDS011;11511;51.514;7.080;2022-12-10T02:35:36;115.60;;;46.55;;
22687;SDS011;11511;51.514;7.080;2022-12-10T02:38:15;120.55;;;45.78;;
22687;SDS011;11511;51.514;7.080;2022-12-10T02:40:52;114.95;;;44.88;;
22687;SDS011;11511;51.514;7.080;2022-12-10T02:43:28;119.65;;;46.78;;
22687;SDS011;11511;51.514;7.080;2022-12-10T02:45:58;108.28;;;44.28;;
22687;SDS011;11511;51.514;7.080;2022-12-10T02:48:31;116.22;;;45.13;;
22687;SDS011;11511;51.514;7.080;2022-12-10T02:51:02;121.38;;;45.20;;
22687;SDS011;11511;51.514;7.080;2022-12-10T02:53:31;110.18;;;44.50;;
22687;SDS011;11511;51.514;7.080;2022-12-10T02:59:11;114.50;;;44.55;;
22687;SDS011;11511;51.514;7.080;2022-12-10T03:07:40;114.45;;;45.10;;
22687;SDS011;11511;51.514;7.080;2022-12-10T03:13:13;110.00;;;44.05;;
22687;SDS011;11511;51.514;7.080;2022-12-10T03:15:46;118.05;;;44.30;;
22687;SDS011;11511;51.514;7.080;2022-12-10T03:18:19;115.10;;;46.03;;
22687;SDS011;11511;51.514;7.080;2022-12-10T03:20:53;128.98;;;48.80;;
22687;SDS011;11511;51.514;7.080;2022-12-10T03:23:35;136.80;;;49.20;;
22687;SDS011;11511;51.514;7.080;2022-12-10T03:26:17;127.53;;;47.35;;
22687;SDS011;11511;51.514;7.080;2022-12-10T03:28:50;126.97;;;47.78;;
22687;SDS011;11511;51.514;7.080;2022-12-10T03:31:30;122.53;;;46.45;;
22687;SDS011;11511;51.514;7.080;2022-12-10T03:34:01;128.20;;;48.60;;
22687;SDS011;11511;51.514;7.080;2022-12-10T03:36:32;131.43;;;46.72;;
22687;SDS011;11511;51.514;7.080;2022-12-10T03:39:06;131.43;;;49.00;;
22687;SDS011;11511;51.514;7.080;2022-12-10T03:41:39;132.68;;;47.63;;
22687;SDS011;11511;51.514;7.080;2022-12-10T03:44:26;126.85;;;46.08;;
22687;SDS011;11511;51.514;7.080;2022-12-10T03:46:59;134.23;;;47.65;;
22687;SDS011;11511;51.514;7.080;2022-12-10T03:49:29;127.00;;;46.22;;
22687;SDS011;11511;51.514;7.080;2022-12-10T03:51:57;129.20;;;46.78;;
22687;SDS011;11511;51.514;7.080;2022-12-10T03:54:26;137.40;;;49.63;;
22687;SDS011;11511;51.514;7.080;2022-12-10T03:56:56;133.63;;;50.00;;
22687;SDS011;11511;51.514;7.080;2022-12-10T03:59:29;128.15;;;49.15;;
22687;SDS011;11511;51.514;7.080;2022-12-10T04:01:59;133.68;;;49.63;;
22687;SDS011;11511;51.514;7.080;2022-12-10T04:04:28;133.25;;;49.40;;
22687;SDS011;11511;51.514;7.080;2022-12-10T04:06:57;129.63;;;49.35;;
22687;SDS011;11511;51.514;7.080;2022-12-10T04:09:26;130.20;;;48.05;;
22687;SDS011;11511;51.514;7.080;2022-12-10T04:11:57;129.25;;;46.83;;
22687;SDS011;11511;51.514;7.080;2022-12-10T04:14:36;135.07;;;48.88;;
22687;SDS011;11511;51.514;7.080;2022-12-10T04:17:33;125.32;;;45.55;;
22687;SDS011;11511;51.514;7.080;2022-12-10T04:20:49;118.45;;;46.05;;
22687;SDS011;11511;51.514;7.080;2022-12-10T04:23:41;122.93;;;47.38;;
22687;SDS011;11511;51.514;7.080;2022-12-10T04:26:44;125.25;;;45.83;;
22687;SDS011;11511;51.514;7.080;2022-12-10T04:29:39;122.60;;;46.28;;
22687;SDS011;11511;51.514;7.080;2022-12-10T04:32:10;118.55;;;45.33;;
22687;SDS011;11511;51.514;7.080;2022-12-10T04:34:42;127.18;;;45.15;;
22687;SDS011;11511;51.514;7.080;2022-12-10T04:37:16;118.85;;;45.38;;
22687;SDS011;11511;51.514;7.080;2022-12-10T04:39:47;114.93;;;45.33;;
22687;SDS011;11511;51.514;7.080;2022-12-10T04:42:21;126.75;;;45.85;;
22687;SDS011;11511;51.514;7.080;2022-12-10T04:45:01;117.15;;;44.28;;
22687;SDS011;11511;51.514;7.080;2022-12-10T04:47:29;116.32;;;45.50;;
22687;SDS011;11511;51.514;7.080;2022-12-10T04:50:01;120.18;;;43.72;;
22687;SDS011;11511;51.514;7.080;2022-12-10T04:52:29;118.60;;;45.17;;
22687;SDS011;11511;51.514;7.080;2022-12-10T04:54:57;113.50;;;43.50;;
22687;SDS011;11511;51.514;7.080;2022-12-10T04:57:25;115.00;;;44.38;;
22687;SDS011;11511;51.514;7.080;2022-12-10T04:59:56;112.45;;;43.47;;
22687;SDS011;11511;51.514;7.080;2022-12-10T05:02:24;112.47;;;42.92;;
22687;SDS011;11511;51.514;7.080;2022-12-10T05:05:00;112.00;;;42.67;;
22687;SDS011;11511;51.514;7.080;2022-12-10T05:07:29;110.65;;;44.58;;
22687;SDS011;11511;51.514;7.080;2022-12-10T05:10:03;107.53;;;42.03;;
22687;SDS011;11511;51.514;7.080;2022-12-10T05:15:09;102.32;;;39.85;;
22687;SDS011;11511;51.514;7.080;2022-12-10T05:17:40;99.63;;;39.78;;
22687;SDS011;11511;51.514;7.080;2022-12-10T05:20:11;100.45;;;40.75;;
22687;SDS011;11511;51.514;7.080;2022-12-10T05:22:39;107.38;;;41.35;;
22687;SDS011;11511;51.514;7.080;2022-12-10T05:25:28;102.68;;;40.35;;
22687;SDS011;11511;51.514;7.080;2022-12-10T05:27:55;99.90;;;39.88;;
22687;SDS011;11511;51.514;7.080;2022-12-10T05:30:26;96.05;;;38.83;;
22687;SDS011;11511;51.514;7.080;2022-12-10T05:32:54;94.60;;;38.70;;
22687;SDS011;11511;51.514;7.080;2022-12-10T05:35:21;94.65;;;38.10;;
22687;SDS011;11511;51.514;7.080;2022-12-10T05:37:49;96.15;;;39.60;;
22687;SDS011;11511;51.514;7.080;2022-12-10T05:40:16;89.22;;;37.70;;
22687;SDS011;11511;51.514;7.080;2022-12-10T05:42:44;84.70;;;36.75;;
22687;SDS011;11511;51.514;7.080;2022-12-10T05:45:11;92.68;;;37.95;;
22687;SDS011;11511;51.514;7.080;2022-12-10T05:47:46;91.18;;;39.10;;
22687;SDS011;11511;51.514;7.080;2022-12-10T05:50:17;88.95;;;37.80;;
22687;SDS011;11511;51.514;7.080;2022-12-10T05:53:17;87.05;;;37.10;;
22687;SDS011;11511;51.514;7.080;2022-12-10T05:55:44;85.57;;;36.75;;
22687;SDS011;11511;51.514;7.080;2022-12-10T05:58:10;88.15;;;37.70;;
22687;SDS011;11511;51.514;7.080;2022-12-10T06:00:38;87.82;;;37.10;;
22687;SDS011;11511;51.514;7.080;2022-12-10T06:03:16;86.63;;;36.17;;
22687;SDS011;11511;51.514;7.080;2022-12-10T06:05:42;82.03;;;36.05;;
22687;SDS011;11511;51.514;7.080;2022-12-10T06:08:18;86.28;;;37.10;;
22687;SDS011;11511;51.514;7.080;2022-12-10T06:11:01;81.18;;;35.78;;
22687;SDS011;11511;51.514;7.080;2022-12-10T06:13:32;86.60;;;37.38;;
22687;SDS011;11511;51.514;7.080;2022-12-10T06:16:08;86.35;;;37.92;;
22687;SDS011;11511;51.514;7.080;2022-12-10T06:18:40;91.10;;;37.65;;
22687;SDS011;11511;51.514;7.080;2022-12-10T06:21:08;87.53;;;36.92;;
22687;SDS011;11511;51.514;7.080;2022-12-10T06:23:40;80.03;;;35.70;;
22687;SDS011;11511;51.514;7.080;2022-12-10T06:26:14;84.78;;;36.88;;
22687;SDS011;11511;51.514;7.080;2022-12-10T06:28:54;82.22;;;36.42;;
22687;SDS011;11511;51.514;7.080;2022-12-10T06:31:22;84.43;;;35.65;;
22687;SDS011;11511;51.514;7.080;2022-12-10T06:33:53;82.82;;;36.58;;
22687;SDS011;11511;51.514;7.080;2022-12-10T06:36:27;82.38;;;35.85;;
22687;SDS011;11511;51.514;7.080;2022-12-10T06:38:58;81.05;;;35.35;;
22687;SDS011;11511;51.514;7.080;2022-12-10T06:41:26;92.93;;;37.28;;
22687;SDS011;11511;51.514;7.080;2022-12-10T06:43:53;81.07;;;34.45;;
22687;SDS011;11511;51.514;7.080;2022-12-10T06:46:31;85.75;;;36.03;;
22687;SDS011;11511;51.514;7.080;2022-12-10T06:48:59;88.65;;;37.90;;
22687;SDS011;11511;51.514;7.080;2022-12-10T06:51:26;92.68;;;37.28;;
22687;SDS011;11511;51.514;7.080;2022-12-10T06:53:53;97.28;;;39.65;;
22687;SDS011;11511;51.514;7.080;2022-12-10T06:56:27;119.43;;;44.47;;
22687;SDS011;11511;51.514;7.080;2022-12-10T06:58:57;133.95;;;45.83;;
22687;SDS011;11511;51.514;7.080;2022-12-10T07:01:25;145.85;;;47.85;;
22687;SDS011;11511;51.514;7.080;2022-12-10T07:03:56;134.60;;;46.55;;
22687;SDS011;11511;51.514;7.080;2022-12-10T07:06:26;150.45;;;46.78;;
22687;SDS011;11511;51.514;7.080;2022-12-10T07:08:55;168.20;;;49.00;;
22687;SDS011;11511;51.514;7.080;2022-12-10T07:11:25;192.25;;;47.88;;
22687;SDS011;11511;51.514;7.080;2022-12-10T07:13:53;172.30;;;47.00;;
22687;SDS011;11511;51.514;7.080;2022-12-10T07:16:22;165.98;;;45.20;;
22687;SDS011;11511;51.514;7.080;2022-12-10T07:18:52;199.35;;;46.20;;
22687;SDS011;11511;51.514;7.080;2022-12-10T07:21:22;190.00;;;48.75;;
22687;SDS011;11511;51.514;7.080;2022-12-10T07:24:00;163.13;;;46.63;;
22687;SDS011;11511;51.514;7.080;2022-12-10T07:26:39;183.10;;;45.53;;
22687;SDS011;11511;51.514;7.080;2022-12-10T07:29:15;183.35;;;44.42;;
22687;SDS011;11511;51.514;7.080;2022-12-10T07:31:52;153.23;;;44.10;;
22687;SDS011;11511;51.514;7.080;2022-12-10T07:34:27;178.45;;;46.90;;
22687;SDS011;11511;51.514;7.080;2022-12-10T07:37:05;191.80;;;48.03;;
22687;SDS011;11511;51.514;7.080;2022-12-10T07:39:59;177.75;;;47.67;;
22687;SDS011;11511;51.514;7.080;2022-12-10T07:42:29;194.35;;;48.45;;
22687;SDS011;11511;51.514;7.080;2022-12-10T07:48:19;176.50;;;47.15;;
22687;SDS011;11511;51.514;7.080;2022-12-10T07:50:55;162.07;;;46.08;;
22687;SDS011;11511;51.514;7.080;2022-12-10T07:53:29;190.70;;;48.72;;
22687;SDS011;11511;51.514;7.080;2022-12-10T07:56:03;188.05;;;49.50;;
22687;SDS011;11511;51.514;7.080;2022-12-10T07:58:32;186.80;;;50.60;;
22687;SDS011;11511;51.514;7.080;2022-12-10T08:01:07;181.20;;;47.47;;
22687;SDS011;11511;51.514;7.080;2022-12-10T08:03:50;197.15;;;50.85;;
22687;SDS011;11511;51.514;7.080;2022-12-10T08:06:20;183.15;;;48.63;;
22687;SDS011;11511;51.514;7.080;2022-12-10T08:08:48;185.57;;;48.90;;
22687;SDS011;11511;51.514;7.080;2022-12-10T08:11:25;206.45;;;52.05;;
22687;SDS011;11511;51.514;7.080;2022-12-10T08:13:58;180.55;;;50.90;;
22687;SDS011;11511;51.514;7.080;2022-12-10T08:16:47;185.13;;;48.90;;
22687;SDS011;11511;51.514;7.080;2022-12-10T08:19:36;182.43;;;49.92;;
22687;SDS011;11511;51.514;7.080;2022-12-10T08:22:11;185.13;;;51.10;;
22687;SDS011;11511;51.514;7.080;2022-12-10T08:24:43;187.63;;;49.88;;
22687;SDS011;11511;51.514;7.080;2022-12-10T08:27:43;187.70;;;50.72;;
22687;SDS011;11511;51.514;7.080;2022-12-10T08:30:46;192.00;;;51.00;;
22687;SDS011;11511;51.514;7.080;2022-12-10T08:33:16;185.77;;;52.47;;
22687;SDS011;11511;51.514;7.080;2022-12-10T08:35:56;185.55;;;50.30;;
22687;SDS011;11511;51.514;7.080;2022-12-10T08:38:33;192.43;;;51.63;;
22687;SDS011;11511;51.514;7.080;2022-12-10T08:41:15;180.30;;;51.35;;
22687;SDS011;11511;51.514;7.080;2022-12-10T08:43:54;178.65;;;48.92;;
22687;SDS011;11511;51.514;7.080;2022-12-10T08:46:25;162.73;;;49.42;;
22687;SDS011;11511;51.514;7.080;2022-12-10T08:49:14;173.85;;;50.58;;
22687;SDS011;11511;51.514;7.080;2022-12-10T08:52:19;165.32;;;51.90;;
22687;SDS011;11511;51.514;7.080;2022-12-10T08:55:52;170.73;;;49.53;;
22687;SDS011;11511;51.514;7.080;2022-12-10T08:58:24;177.07;;;51.33;;
22687;SDS011;11511;51.514;7.080;2022-12-10T09:01:00;169.40;;;51.63;;
22687;SDS011;11511;51.514;7.080;2022-12-10T09:04:16;178.40;;;51.50;;
22687;SDS011;11511;51.514;7.080;2022-12-10T09:06:45;177.90;;;51.90;;
22687;SDS011;11511;51.514;7.080;2022-12-10T09:09:14;163.60;;;50.85;;
22687;SDS011;11511;51.514;7.080;2022-12-10T09:11:55;170.63;;;52.45;;
22687;SDS011;11511;51.514;7.080;2022-12-10T09:17:05;152.70;;;47.60;;
22687;SDS011;11511;51.514;7.080;2022-12-10T09:19:43;150.88;;;48.85;;
22687;SDS011;11511;51.514;7.080;2022-12-10T09:22:17;140.55;;;46.88;;
22687;SDS011;11511;51.514;7.080;2022-12-10T09:31:02;143.43;;;47.95;;
22687;SDS011;11511;51.514;7.080;2022-12-10T09:33:50;137.25;;;46.53;;
22687;SDS011;11511;51.514;7.080;2022-12-10T09:36:20;141.43;;;47.30;;
22687;SDS011;11511;51.514;7.080;2022-12-10T09:39:50;141.25;;;49.03;;
22687;SDS011;11511;51.514;7.080;2022-12-10T09:45:36;153.65;;;53.53;;
22687;SDS011;11511;51.514;7.080;2022-12-10T09:48:32;159.93;;;53.13;;
22687;SDS011;11511;51.514;7.080;2022-12-10T09:51:31;145.75;;;50.42;;
22687;SDS011;11511;51.514;7.080;2022-12-10T09:59:49;135.82;;;49.50;;
22687;SDS011;11511;51.514;7.080;2022-12-10T10:02:31;134.15;;;47.33;;
22687;SDS011;11511;51.514;7.080;2022-12-10T10:05:49;130.65;;;44.75;;
22687;SDS011;11511;51.514;7.080;2022-12-10T10:09:13;131.57;;;46.97;;
22687;SDS011;11511;51.514;7.080;2022-12-10T10:11:50;132.57;;;47.60;;
22687;SDS011;11511;51.514;7.080;2022-12-10T10:14:25;132.95;;;47.20;;
22687;SDS011;11511;51.514;7.080;2022-12-10T10:17:00;125.50;;;45.60;;
22687;SDS011;11511;51.514;7.080;2022-12-10T10:20:01;119.95;;;45.38;;
22687;SDS011;11511;51.514;7.080;2022-12-10T10:22:58;118.18;;;42.80;;
22687;SDS011;11511;51.514;7.080;2022-12-10T10:25:40;105.97;;;40.75;;
22687;SDS011;11511;51.514;7.080;2022-12-10T10:28:15;123.35;;;42.85;;
22687;SDS011;11511;51.514;7.080;2022-12-10T10:30:46;119.85;;;47.13;;
22687;SDS011;11511;51.514;7.080;2022-12-10T10:33:18;101.10;;;40.80;;
22687;SDS011;11511;51.514;7.080;2022-12-10T10:35:56;111.85;;;42.28;;
22687;SDS011;11511;51.514;7.080;2022-12-10T10:38:28;107.20;;;41.33;;
22687;SDS011;11511;51.514;7.080;2022-12-10T10:40:57;100.30;;;40.83;;
22687;SDS011;11511;51.514;7.080;2022-12-10T10:43:32;101.82;;;40.25;;
22687;SDS011;11511;51.514;7.080;2022-12-10T10:46:17;101.45;;;40.00;;
22687;SDS011;11511;51.514;7.080;2022-12-10T10:48:48;101.18;;;39.95;;
22687;SDS011;11511;51.514;7.080;2022-12-10T10:51:19;96.70;;;39.72;;
22687;SDS011;11511;51.514;7.080;2022-12-10T10:53:56;86.88;;;37.13;;
22687;SDS011;11511;51.514;7.080;2022-12-10T10:56:51;91.78;;;39.10;;
22687;SDS011;11511;51.514;7.080;2022-12-10T11:01:59;87.57;;;34.92;;
22687;SDS011;11511;51.514;7.080;2022-12-10T11:04:50;90.93;;;37.08;;
22687;SDS011;11511;51.514;7.080;2022-12-10T11:10:21;86.75;;;35.42;;
22687;SDS011;11511;51.514;7.080;2022-12-10T11:12:55;81.15;;;35.20;;
22687;SDS011;11511;51.514;7.080;2022-12-10T11:15:38;74.40;;;31.75;;
22687;SDS011;11511;51.514;7.080;2022-12-10T11:21:15;77.28;;;30.98;;
22687;SDS011;11511;51.514;7.080;2022-12-10T11:23:47;84.10;;;33.47;;
22687;SDS011;11511;51.514;7.080;2022-12-10T11:34:52;79.47;;;33.20;;
22687;SDS011;11511;51.514;7.080;2022-12-10T11:41:00;73.82;;;31.55;;
22687;SDS011;11511;51.514;7.080;2022-12-10T11:46:59;73.70;;;32.88;;
22687;SDS011;11511;51.514;7.080;2022-12-10T11:55:24;76.07;;;31.50;;
22687;SDS011;11511;51.514;7.080;2022-12-10T11:58:02;81.03;;;34.10;;
22687;SDS011;11511;51.514;7.080;2022-12-10T12:00:51;77.28;;;32.95;;
22687;SDS011;11511;51.514;7.080;2022-12-10T12:07:04;70.63;;;31.40;;
22687;SDS011;11511;51.514;7.080;2022-12-10T12:12:59;72.97;;;31.58;;
22687;SDS011;11511;51.514;7.080;2022-12-10T12:15:52;84.18;;;35.35;;
22687;SDS011;11511;51.514;7.080;2022-12-10T12:21:24;84.28;;;36.33;;
22687;SDS011;11511;51.514;7.080;2022-12-10T12:26:38;75.55;;;30.63;;
22687;SDS011;11511;51.514;7.080;2022-12-10T12:38:03;72.65;;;31.25;;
22687;SDS011;11511;51.514;7.080;2022-12-10T12:41:10;72.40;;;31.00;;
22687;SDS011;11511;51.514;7.080;2022-12-10T12:43:47;68.53;;;31.55;;
22687;SDS011;11511;51.514;7.080;2022-12-10T12:49:29;61.15;;;27.80;;
22687;SDS011;11511;51.514;7.080;2022-12-10T12:54:48;62.25;;;26.92;;
22687;SDS011;11511;51.514;7.080;2022-12-10T12:57:40;61.13;;;28.60;;
22687;SDS011;11511;51.514;7.080;2022-12-10T13:00:23;56.40;;;28.27;;
22687;SDS011;11511;51.514;7.080;2022-12-10T13:03:36;61.55;;;29.50;;
22687;SDS011;11511;51.514;7.080;2022-12-10T13:17:37;72.18;;;31.58;;
22687;SDS011;11511;51.514;7.080;2022-12-10T13:20:51;72.20;;;31.70;;
22687;SDS011;11511;51.514;7.080;2022-12-10T13:25:57;76.25;;;32.15;;
22687;SDS011;11511;51.514;7.080;2022-12-10T13:31:21;84.82;;;36.95;;
22687;SDS011;11511;51.514;7.080;2022-12-10T13:34:29;78.03;;;32.47;;
22687;SDS011;11511;51.514;7.080;2022-12-10T13:37:04;72.13;;;30.25;;
22687;SDS011;11511;51.514;7.080;2022-12-10T13:39:53;77.20;;;32.83;;
22687;SDS011;11511;51.514;7.080;2022-12-10T13:42:30;76.07;;;32.20;;
22687;SDS011;11511;51.514;7.080;2022-12-10T13:45:23;73.93;;;32.22;;
22687;SDS011;11511;51.514;7.080;2022-12-10T13:53:47;71.00;;;30.80;;
22687;SDS011;11511;51.514;7.080;2022-12-10T13:56:26;74.30;;;32.50;;
22687;SDS011;11511;51.514;7.080;2022-12-10T14:05:03;74.50;;;32.05;;
22687;SDS011;11511;51.514;7.080;2022-12-10T14:07:42;75.18;;;33.78;;
22687;SDS011;11511;51.514;7.080;2022-12-10T14:13:41;74.63;;;32.75;;
22687;SDS011;11511;51.514;7.080;2022-12-10T14:16:14;69.75;;;32.72;;
22687;SDS011;11511;51.514;7.080;2022-12-10T14:18:46;72.65;;;33.60;;
22687;SDS011;11511;51.514;7.080;2022-12-10T14:21:33;73.80;;;32.83;;
22687;SDS011;11511;51.514;7.080;2022-12-10T14:24:02;73.38;;;30.52;;
22687;SDS011;11511;51.514;7.080;2022-12-10T14:37:01;77.35;;;33.13;;
22687;SDS011;11511;51.514;7.080;2022-12-10T14:39:37;72.40;;;32.25;;
22687;SDS011;11511;51.514;7.080;2022-12-10T14:42:05;77.63;;;32.03;;
22687;SDS011;11511;51.514;7.080;2022-12-10T14:44:51;80.82;;;31.95;;
22687;SDS011;11511;51.514;7.080;2022-12-10T14:47:37;82.32;;;32.88;;
22687;SDS011;11511;51.514;7.080;2022-12-10T14:50:14;77.22;;;33.28;;
22687;SDS011;11511;51.514;7.080;2022-12-10T14:53:19;80.72;;;33.50;;
22687;SDS011;11511;51.514;7.080;2022-12-10T15:10:14;75.05;;;32.00;;
22687;SDS011;11511;51.514;7.080;2022-12-10T15:12:50;77.28;;;34.05;;
22687;SDS011;11511;51.514;7.080;2022-12-10T15:15:25;84.30;;;34.47;;
22687;SDS011;11511;51.514;7.080;2022-12-10T15:18:26;78.88;;;33.70;;
22687;SDS011;11511;51.514;7.080;2022-12-10T15:21:05;85.43;;;35.45;;
22687;SDS011;11511;51.514;7.080;2022-12-10T15:33:33;80.53;;;33.67;;
22687;SDS011;11511;51.514;7.080;2022-12-10T15:36:11;80.38;;;34.17;;
22687;SDS011;11511;51.514;7.080;2022-12-10T15:42:50;83.68;;;32.25;;
22687;SDS011;11511;51.514;7.080;2022-12-10T15:45:39;84.75;;;35.00;;
22687;SDS011;11511;51.514;7.080;2022-12-10T15:48:13;82.60;;;33.47;;
22687;SDS011;11511;51.514;7.080;2022-12-10T15:59:31;72.43;;;31.63;;
22687;SDS011;11511;51.514;7.080;2022-12-10T16:06:33;83.60;;;34.47;;
22687;SDS011;11511;51.514;7.080;2022-12-10T16:09:15;79.90;;;34.85;;
22687;SDS011;11511;51.514;7.080;2022-12-10T16:16:25;78.45;;;32.80;;
22687;SDS011;11511;51.514;7.080;2022-12-10T16:18:53;81.05;;;34.03;;
22687;SDS011;11511;51.514;7.080;2022-12-10T16:21:41;86.45;;;34.80;;
22687;SDS011;11511;51.514;7.080;2022-12-10T16:24:13;79.70;;;34.25;;
22687;SDS011;11511;51.514;7.080;2022-12-10T16:27:21;85.72;;;35.03;;
22687;SDS011;11511;51.514;7.080;2022-12-10T16:30:15;71.63;;;30.90;;
22687;SDS011;11511;51.514;7.080;2022-12-10T16:37:33;74.10;;;32.90;;
22687;SDS011;11511;51.514;7.080;2022-12-10T16:40:19;79.97;;;33.17;;
22687;SDS011;11511;51.514;7.080;2022-12-10T16:46:10;77.78;;;32.67;;
22687;SDS011;11511;51.514;7.080;2022-12-10T16:48:42;80.78;;;35.47;;
22687;SDS011;11511;51.514;7.080;2022-12-10T16:51:18;84.63;;;35.85;;
22687;SDS011;11511;51.514;7.080;2022-12-10T16:54:05;79.47;;;33.78;;
22687;SDS011;11511;51.514;7.080;2022-12-10T16:57:43;86.75;;;35.45;;
22687;SDS011;11511;51.514;7.080;2022-12-10T17:01:29;79.18;;;34.75;;
22687;SDS011;11511;51.514;7.080;2022-12-10T17:04:15;90.70;;;36.15;;
22687;SDS011;11511;51.514;7.080;2022-12-10T17:23:12;79.00;;;32.90;;
22687;SDS011;11511;51.514;7.080;2022-12-10T17:38:52;84.47;;;36.10;;
22687;SDS011;11511;51.514;7.080;2022-12-10T17:42:45;76.43;;;33.72;;
22687;SDS011;11511;51.514;7.080;2022-12-10T17:45:23;79.63;;;35.30;;
22687;SDS011;11511;51.514;7.080;2022-12-10T17:48:57;73.57;;;32.72;;
22687;SDS011;11511;51.514;7.080;2022-12-10T18:33:48;61.22;;;26.48;;
22687;SDS011;11511;51.514;7.080;2022-12-10T18:36:22;61.50;;;27.40;;
22687;SDS011;11511;51.514;7.080;2022-12-10T18:38:51;56.38;;;26.55;;
22687;SDS011;11511;51.514;7.080;2022-12-10T18:41:19;55.88;;;25.50;;
22687;SDS011;11511;51.514;7.080;2022-12-10T18:43:47;61.15;;;27.25;;
22687;SDS011;11511;51.514;7.080;2022-12-10T18:46:18;61.42;;;27.63;;
22687;SDS011;11511;51.514;7.080;2022-12-10T18:48:47;66.50;;;28.33;;
22687;SDS011;11511;51.514;7.080;2022-12-10T18:51:15;61.80;;;27.10;;
22687;SDS011;11511;51.514;7.080;2022-12-10T18:53:42;68.13;;;27.85;;
22687;SDS011;11511;51.514;7.080;2022-12-10T18:56:12;55.22;;;25.90;;
22687;SDS011;11511;51.514;7.080;2022-12-10T18:58:51;56.58;;;24.95;;
22687;SDS011;11511;51.514;7.080;2022-12-10T19:01:19;56.50;;;25.67;;
22687;SDS011;11511;51.514;7.080;2022-12-10T19:03:52;59.13;;;24.38;;
22687;SDS011;11511;51.514;7.080;2022-12-10T19:06:25;52.30;;;23.30;;
22687;SDS011;11511;51.514;7.080;2022-12-10T19:08:55;60.50;;;26.10;;
22687;SDS011;11511;51.514;7.080;2022-12-10T19:11:23;54.25;;;24.00;;
22687;SDS011;11511;51.514;7.080;2022-12-10T19:13:50;53.53;;;23.30;;
22687;SDS011;11511;51.514;7.080;2022-12-10T19:16:21;55.88;;;25.05;;
22687;SDS011;11511;51.514;7.080;2022-12-10T19:18:49;59.67;;;25.73;;
22687;SDS011;11511;51.514;7.080;2022-12-10T19:21:17;57.80;;;25.40;;
22687;SDS011;11511;51.514;7.080;2022-12-10T19:23:44;59.70;;;25.42;;
22687;SDS011;11511;51.514;7.080;2022-12-10T19:26:34;59.53;;;25.85;;
22687;SDS011;11511;51.514;7.080;2022-12-10T19:29:03;64.53;;;26.75;;
22687;SDS011;11511;51.514;7.080;2022-12-10T19:31:40;58.60;;;25.60;;
22687;SDS011;11511;51.514;7.080;2022-12-10T19:34:08;58.10;;;24.83;;
22687;SDS011;11511;51.514;7.080;2022-12-10T19:36:36;57.65;;;25.65;;
22687;SDS011;11511;51.514;7.080;2022-12-10T19:39:13;60.75;;;25.33;;
22687;SDS011;11511;51.514;7.080;2022-12-10T19:41:45;56.25;;;25.15;;
22687;SDS011;11511;51.514;7.080;2022-12-10T19:44:13;58.95;;;25.10;;
22687;SDS011;11511;51.514;7.080;2022-12-10T19:46:40;63.35;;;25.35;;
22687;SDS011;11511;51.514;7.080;2022-12-10T19:49:11;62.22;;;26.23;;
22687;SDS011;11511;51.514;7.080;2022-12-10T19:51:40;60.75;;;25.67;;
22687;SDS011;11511;51.514;7.080;2022-12-10T19:54:07;64.80;;;27.30;;